Bishop, GA (30621)

12:49 AM EDT on September 22, 2014 (GMT -0400)
RAWS WATKINSVILLE GA US | Change Station
CLOSE
Current Station
Personal Weather Station
Location: Watkinsville, GA
Elevation: 785 ft
Nearby Weather Stations

Elev 785 ft 33.89 °N, 83.42 °W | Updated 47 minutes ago

Overcast
Overcast
74 °F
Feels Like 76 °F
N
6
Wind Variable Wind from WSW
Gusts 10.0 mph

Today
High -- | Low -- °F
--% Chance of Precip.
Yesterday
High -- | Low -- °F
Precip. -- in
7:21 AM 7:30 PM
Waning Crescent, 4% visible
Pressure 29.94 in
Visibility 10.0 miles
Clouds Scattered Clouds 6000 ft
Scattered Clouds 7000 ft
Overcast 9000 ft
Heat Index 76 °F
Dew Point 61 °F
Humidity 65%
Rainfall 0.00 in
Snow Depth Not available.
UV 0 out of 12
Pollen 7.80 out of 12
Air Quality Not available.
Flu Activity Not available.
METAR KAHN 220351Z AUTO 25004KT 10SM SCT060 SCT070 OVC090 24/17 A2996 RMK AO2 SLP138 T02390167

More Conditions Fewer Conditions

Pressure 29.94 in
Visibility 10.0 miles
Clouds Scattered Clouds 6000 ft
Scattered Clouds 7000 ft
Overcast 9000 ft
Heat Index 76 °F
Dew Point 61 °F
Humidity 65%
Rainfall 0.00 in
Snow Depth Not available.
UV 0 out of 12
Pollen 7.80 out of 12
Air Quality Not available.
Flu Activity Not available.
METAR KAHN 220351Z AUTO 25004KT 10SM SCT060 SCT070 OVC090 24/17 A2996 RMK AO2 SLP138 T02390167

More Conditions Fewer Conditions

10-Day Weather Forecast

Almanac

Astronomy

Sep. 22, 2014 Rise Set
Actual Time 7:21 AM EDT 7:30 PM EDT
Civil Twilight 6:57 AM EDT 7:55 PM EDT
Nautical Twilight 6:27 AM EDT 8:24 PM EDT
Astronomical Twilight 5:58 AM EDT 8:53 PM EDT
Moon 5:52 AM EDT 6:35 PM EDT
Length of Visible Light 12h 58m
Length of Day
12h 08m
Tomorrow will be 2m 6s shorter.
Waning Crescent, 4% of the Moon is Illuminated
Today
Waning Crescent
Sep 24
New
Oct 1
First Quarter
Oct 8
Full
Oct 15
Last Quarter

Today's Extremes

State Highs State Lows

Community

WunderPhotos

Upload Photos

1,755,391 photos uploaded!

Nearby

Snow Depth

Station Depth Elevation
No new snow has been reported.

Earthquake Activity

City Distance Mag. Time & Date
Sweetwater, Tennessee 135 miles 2.5 3:54 PM EDT
2014-09-20
New Ellenton, South Carolina 104 miles 2.6 4:38 PM EDT
2014-09-19
Minimum magnitude displayed is 2.5.

Coastal Water Temperatures

Place Temperature
No Stations Reporting

Nearby Weather Stations